createdAt,value
2022-09-24T00:02:05.529Z,8.40
2022-09-24T00:04:32.629Z,8.30
2022-09-24T00:06:59.866Z,8.30
2022-09-24T00:09:26.993Z,8.20
2022-09-24T00:11:55.089Z,8.20
2022-09-24T00:14:22.179Z,8.20
2022-09-24T00:16:50.057Z,8.10
2022-09-24T00:19:20.539Z,8.10
2022-09-24T00:21:48.180Z,8.10
2022-09-24T00:24:35.637Z,8.10
2022-09-24T00:27:05.832Z,8.10
2022-09-24T00:29:35.626Z,8.10
2022-09-24T00:32:06.802Z,8.10
2022-09-24T00:34:37.191Z,8.00
2022-09-24T00:37:07.578Z,8.00
2022-09-24T00:39:35.348Z,8.00
2022-09-24T00:42:02.532Z,8.00
2022-09-24T00:44:41.337Z,8.00
2022-09-24T00:47:37.360Z,7.90
2022-09-24T00:50:22.266Z,8.00
2022-09-24T00:52:58.983Z,7.90
2022-09-24T00:55:27.642Z,7.90
2022-09-24T00:58:02.797Z,7.80
2022-09-24T01:00:34.728Z,7.80
2022-09-24T01:03:12.788Z,7.80
2022-09-24T01:05:39.959Z,7.80
2022-09-24T01:08:12.885Z,7.80
2022-09-24T01:11:11.000Z,7.70
2022-09-24T01:14:11.370Z,7.70
2022-09-24T01:17:29.631Z,7.70
2022-09-24T01:20:15.200Z,7.70
2022-09-24T01:23:51.848Z,7.70
2022-09-24T01:26:51.275Z,7.70
2022-09-24T01:29:21.098Z,7.70
2022-09-24T01:32:05.340Z,7.60
2022-09-24T01:34:50.586Z,7.60
2022-09-24T01:37:22.911Z,7.60
2022-09-24T01:39:54.467Z,7.50
2022-09-24T01:42:29.291Z,7.50
2022-09-24T01:44:58.339Z,7.50
2022-09-24T01:47:39.683Z,7.50
2022-09-24T01:50:17.183Z,7.40
2022-09-24T01:53:06.785Z,7.40
2022-09-24T01:55:38.865Z,7.40
2022-09-24T01:58:14.608Z,7.50
2022-09-24T02:00:45.348Z,7.40
2022-09-24T02:03:25.545Z,7.40
2022-09-24T02:06:09.856Z,7.40
2022-09-24T02:08:45.069Z,7.40
2022-09-24T02:11:23.503Z,7.30
2022-09-24T02:14:06.771Z,7.30
2022-09-24T02:16:42.177Z,7.30
2022-09-24T02:19:18.925Z,7.30
2022-09-24T02:21:47.094Z,7.30
2022-09-24T02:24:24.599Z,7.20
2022-09-24T02:26:52.573Z,7.20
2022-09-24T02:29:23.203Z,7.20
2022-09-24T02:31:55.777Z,7.20
2022-09-24T02:34:31.675Z,7.20
2022-09-24T02:37:07.348Z,7.20
2022-09-24T02:39:35.040Z,7.20
2022-09-24T02:42:07.744Z,7.10
2022-09-24T02:44:36.325Z,7.10
2022-09-24T02:47:04.507Z,7.10
2022-09-24T02:49:31.699Z,7.00
2022-09-24T02:51:58.937Z,7.10
2022-09-24T02:54:26.314Z,7.00
2022-09-24T02:56:53.999Z,7.10
2022-09-24T02:59:21.204Z,7.00
2022-09-24T03:01:50.147Z,7.00
2022-09-24T03:04:20.662Z,7.10
2022-09-24T03:06:47.706Z,7.00
2022-09-24T03:09:15.050Z,7.00
2022-09-24T03:11:42.348Z,7.00
2022-09-24T03:14:09.578Z,7.00
2022-09-24T03:16:36.690Z,7.00
2022-09-24T03:19:04.323Z,7.10
2022-09-24T03:21:31.447Z,7.00
2022-09-24T03:23:58.497Z,7.00
2022-09-24T03:26:25.891Z,7.00
2022-09-24T03:28:53.322Z,7.00
2022-09-24T03:31:21.000Z,7.00
2022-09-24T03:33:49.468Z,6.90
2022-09-24T03:36:23.512Z,6.90
2022-09-24T03:38:56.493Z,6.90
2022-09-24T03:41:27.704Z,6.90
2022-09-24T03:43:57.922Z,6.90
2022-09-24T03:46:30.143Z,6.90
2022-09-24T03:49:00.696Z,6.90
2022-09-24T03:51:28.466Z,6.90
2022-09-24T03:53:58.673Z,6.90
2022-09-24T03:56:25.930Z,6.90
2022-09-24T03:58:56.530Z,6.90
2022-09-24T04:01:27.152Z,6.90
2022-09-24T04:04:02.131Z,6.90
2022-09-24T04:06:29.531Z,6.90
2022-09-24T04:09:00.389Z,6.80
2022-09-24T04:11:27.507Z,6.90
2022-09-24T04:13:54.736Z,6.90
2022-09-24T04:16:22.502Z,6.90
2022-09-24T04:18:51.009Z,6.80
2022-09-24T04:21:18.180Z,6.80
2022-09-24T04:23:45.316Z,6.80
2022-09-24T04:26:12.588Z,6.80
2022-09-24T04:28:39.905Z,6.80
2022-09-24T04:31:07.501Z,6.80
2022-09-24T04:33:34.670Z,6.80
2022-09-24T04:36:04.975Z,6.80
2022-09-24T04:38:32.163Z,6.80
2022-09-24T04:41:09.946Z,6.70
2022-09-24T04:43:37.176Z,6.80
2022-09-24T04:46:09.347Z,6.80
2022-09-24T04:48:38.279Z,6.70
2022-09-24T04:51:10.489Z,6.70
2022-09-24T04:53:38.076Z,6.70
2022-09-24T04:56:12.128Z,6.70
2022-09-24T04:58:40.464Z,6.80
2022-09-24T05:01:07.996Z,6.80
2022-09-24T05:03:35.583Z,6.70
2022-09-24T05:06:02.680Z,6.80
2022-09-24T05:08:29.724Z,6.80
2022-09-24T05:10:56.828Z,6.80
2022-09-24T05:13:24.168Z,6.80
2022-09-24T05:15:54.937Z,6.80
2022-09-24T05:18:22.503Z,6.80
2022-09-24T05:20:49.669Z,6.80
2022-09-24T05:23:16.837Z,6.90
2022-09-24T05:26:02.381Z,6.90
2022-09-24T05:28:31.001Z,6.90
2022-09-24T05:30:59.905Z,6.90
2022-09-24T05:33:33.623Z,7.00
2022-09-24T05:36:00.995Z,7.10
2022-09-24T05:38:29.961Z,7.10
2022-09-24T05:41:00.644Z,7.20
2022-09-24T05:43:27.930Z,7.20
2022-09-24T05:45:58.887Z,7.20
2022-09-24T05:48:26.359Z,7.40
2022-09-24T05:50:55.491Z,7.40
2022-09-24T05:53:25.832Z,7.50
2022-09-24T05:55:53.151Z,7.60
2022-09-24T05:58:20.717Z,7.60
2022-09-24T06:00:47.746Z,7.70
2022-09-24T06:03:17.068Z,7.80
2022-09-24T06:05:50.473Z,7.90
2022-09-24T06:08:20.616Z,7.90
2022-09-24T06:10:48.825Z,8.00
2022-09-24T06:13:20.975Z,8.10
2022-09-24T06:15:48.135Z,8.20
2022-09-24T06:18:18.676Z,8.30
2022-09-24T06:20:52.033Z,8.30
2022-09-24T06:23:19.058Z,8.40
2022-09-24T06:25:52.026Z,8.50
2022-09-24T06:28:19.191Z,8.60
2022-09-24T06:30:46.291Z,8.60
2022-09-24T06:33:17.414Z,8.70
2022-09-24T06:35:44.888Z,8.70
2022-09-24T06:38:15.010Z,8.80
2022-09-24T06:40:45.619Z,8.90
2022-09-24T06:43:13.644Z,9.00
2022-09-24T06:45:43.108Z,9.10
2022-09-24T06:48:13.065Z,9.20
2022-09-24T06:50:45.170Z,9.30
2022-09-24T06:53:13.176Z,9.40
2022-09-24T06:55:40.684Z,9.50
2022-09-24T06:58:17.847Z,9.60
2022-09-24T07:01:02.520Z,9.70
2022-09-24T07:03:34.280Z,9.80
2022-09-24T07:06:04.989Z,9.90
2022-09-24T07:08:33.076Z,10.00
2022-09-24T07:11:00.892Z,10.00
2022-09-24T07:13:28.499Z,10.10
2022-09-24T07:15:55.780Z,10.10
2022-09-24T07:18:23.238Z,10.10
2022-09-24T07:20:55.587Z,10.20
2022-09-24T07:23:23.747Z,10.30
2022-09-24T07:25:57.006Z,10.40
2022-09-24T07:28:24.046Z,10.50
2022-09-24T07:31:00.590Z,10.50
2022-09-24T07:33:28.072Z,10.60
2022-09-24T07:35:55.105Z,10.60
2022-09-24T07:38:22.459Z,10.60
2022-09-24T07:40:58.121Z,10.70
2022-09-24T07:43:25.723Z,10.70
2022-09-24T07:45:54.519Z,10.80
2022-09-24T07:48:21.885Z,10.80
2022-09-24T07:50:49.059Z,10.90
2022-09-24T07:53:16.920Z,11.00
2022-09-24T07:55:47.279Z,11.10
2022-09-24T07:58:15.125Z,11.20
2022-09-24T08:00:42.798Z,11.30
2022-09-24T08:03:09.950Z,11.40
2022-09-24T08:05:43.025Z,11.50
2022-09-24T08:08:14.889Z,11.70
2022-09-24T08:10:43.082Z,11.60
2022-09-24T08:13:13.762Z,11.70
2022-09-24T08:15:41.502Z,11.80
2022-09-24T08:18:08.767Z,11.80
2022-09-24T08:20:39.621Z,11.90
2022-09-24T08:23:12.957Z,12.00
2022-09-24T08:25:40.137Z,12.10
2022-09-24T08:28:12.986Z,12.10
2022-09-24T08:30:40.477Z,12.10
2022-09-24T08:33:08.017Z,12.20
2022-09-24T08:35:36.110Z,12.30
2022-09-24T08:38:03.666Z,12.30
2022-09-24T08:40:46.684Z,12.40
2022-09-24T08:44:04.245Z,12.50
2022-09-24T08:46:58.103Z,12.70
2022-09-24T08:49:32.044Z,12.80
2022-09-24T08:52:34.215Z,12.80
2022-09-24T08:55:30.114Z,12.90
2022-09-24T08:58:38.169Z,13.00
2022-09-24T09:01:10.498Z,13.00
2022-09-24T09:04:01.884Z,13.10
2022-09-24T09:06:46.945Z,13.20
2022-09-24T09:09:24.020Z,13.30
2022-09-24T09:12:05.728Z,13.30
2022-09-24T09:14:52.145Z,13.40
2022-09-24T09:17:42.384Z,13.50
2022-09-24T09:20:50.236Z,13.50
2022-09-24T09:23:34.345Z,13.60
2022-09-24T09:26:02.693Z,13.60
2022-09-24T09:28:30.131Z,13.70
2022-09-24T09:31:22.566Z,13.80
2022-09-24T09:34:01.245Z,14.00
2022-09-24T09:36:47.200Z,14.10
2022-09-24T09:39:22.808Z,14.20
2022-09-24T09:42:25.884Z,14.30
2022-09-24T09:44:54.209Z,14.30
2022-09-24T09:47:59.218Z,14.40
2022-09-24T09:50:48.293Z,14.50
2022-09-24T09:53:21.163Z,14.50
2022-09-24T09:56:05.357Z,14.60
2022-09-24T09:58:36.878Z,14.60
2022-09-24T10:01:10.414Z,14.60
2022-09-24T10:03:49.646Z,14.70
2022-09-24T10:06:29.827Z,14.80
2022-09-24T10:09:15.276Z,14.90
2022-09-24T10:11:46.029Z,14.90
2022-09-24T10:14:19.395Z,15.10
2022-09-24T10:16:54.713Z,15.20
2022-09-24T10:19:28.059Z,15.40
2022-09-24T10:22:00.258Z,15.50
2022-09-24T10:24:30.344Z,15.60
2022-09-24T10:26:58.019Z,15.60
2022-09-24T10:29:51.329Z,15.60
2022-09-24T10:32:29.530Z,15.60
2022-09-24T10:35:18.685Z,15.60
2022-09-24T10:38:23.776Z,15.60
2022-09-24T10:40:51.300Z,15.70
2022-09-24T10:43:22.799Z,15.70
2022-09-24T10:46:09.264Z,15.80
2022-09-24T10:48:36.435Z,15.90
2022-09-24T10:51:29.577Z,16.00
2022-09-24T10:54:22.443Z,16.00
2022-09-24T10:56:56.437Z,16.00
2022-09-24T10:59:51.340Z,16.10
2022-09-24T11:02:51.752Z,16.10
2022-09-24T11:05:23.999Z,16.20
2022-09-24T11:08:30.694Z,16.20
2022-09-24T11:11:23.767Z,16.20
2022-09-24T11:14:07.482Z,16.20
2022-09-24T11:17:06.010Z,16.30
2022-09-24T11:20:34.807Z,16.30
2022-09-24T11:23:05.537Z,16.30
2022-09-24T11:25:56.400Z,16.30
2022-09-24T11:29:31.125Z,16.30
2022-09-24T11:32:25.066Z,16.40
2022-09-24T11:35:07.908Z,16.40
2022-09-24T11:37:59.026Z,16.50
2022-09-24T11:43:40.112Z,16.80
2022-09-24T11:46:36.392Z,17.00
2022-09-24T11:49:37.080Z,17.10
2022-09-24T11:52:38.193Z,17.10
2022-09-24T11:55:36.533Z,17.10
2022-09-24T11:58:28.324Z,17.20
2022-09-24T12:01:28.154Z,17.40
2022-09-24T12:04:22.588Z,17.50
2022-09-24T12:06:58.078Z,17.60
2022-09-24T12:09:37.592Z,17.80
2022-09-24T12:12:21.997Z,17.90
2022-09-24T12:15:07.421Z,18.00
2022-09-24T12:17:52.527Z,18.20
2022-09-24T12:20:31.074Z,18.20
2022-09-24T12:23:09.215Z,18.30
2022-09-24T12:25:45.687Z,18.20
2022-09-24T12:28:39.227Z,18.40
2022-09-24T12:32:21.695Z,18.50
2022-09-24T12:35:19.281Z,18.80
2022-09-24T12:37:51.138Z,19.00
2022-09-24T12:40:44.529Z,19.30
2022-09-24T12:44:06.085Z,19.40
2022-09-24T12:46:53.998Z,19.70
2022-09-24T12:49:35.453Z,19.90
2022-09-24T12:52:40.505Z,19.90
2022-09-24T12:55:34.862Z,20.10
2022-09-24T12:58:08.099Z,20.20
2022-09-24T13:00:45.612Z,20.30
2022-09-24T13:03:41.925Z,20.40
2022-09-24T13:06:33.350Z,20.30
2022-09-24T13:09:01.236Z,20.20
2022-09-24T13:11:38.147Z,20.20
2022-09-24T13:14:21.781Z,20.20
2022-09-24T13:16:55.327Z,20.20
2022-09-24T13:19:44.217Z,20.20
2022-09-24T13:22:34.862Z,20.20
2022-09-24T13:25:08.188Z,20.40
2022-09-24T13:27:42.425Z,20.40
2022-09-24T13:30:12.529Z,20.40
2022-09-24T13:33:04.588Z,20.40
2022-09-24T13:35:43.400Z,20.40
2022-09-24T13:38:24.116Z,20.30
2022-09-24T13:41:01.662Z,20.20
2022-09-24T13:43:52.934Z,20.10
2022-09-24T13:46:21.164Z,20.00
2022-09-24T13:49:06.371Z,20.00
2022-09-24T13:51:38.327Z,19.90
2022-09-24T13:54:22.013Z,19.80
2022-09-24T13:57:28.634Z,19.80
2022-09-24T14:00:22.949Z,19.70
2022-09-24T14:03:02.400Z,19.60
2022-09-24T14:05:36.987Z,19.60
2022-09-24T14:08:16.485Z,19.50
2022-09-24T14:10:51.044Z,19.40
2022-09-24T14:13:21.486Z,19.40
2022-09-24T14:15:57.137Z,19.30
2022-09-24T14:18:27.238Z,19.20
2022-09-24T14:21:19.025Z,19.00
2022-09-24T14:24:01.180Z,18.90
2022-09-24T14:26:59.934Z,18.90
2022-09-24T14:29:59.572Z,18.80
2022-09-24T14:32:42.207Z,18.60
2022-09-24T14:35:19.478Z,18.60
2022-09-24T14:37:54.871Z,18.50
2022-09-24T14:40:23.440Z,18.50
2022-09-24T14:43:02.812Z,18.40
2022-09-24T14:45:36.239Z,18.30
2022-09-24T14:48:33.024Z,18.20
2022-09-24T14:51:00.728Z,18.20
2022-09-24T14:53:35.376Z,18.10
2022-09-24T14:56:34.022Z,18.10
2022-09-24T14:59:01.886Z,18.00
2022-09-24T15:01:33.712Z,18.00
2022-09-24T15:04:16.323Z,18.00
2022-09-24T15:06:48.400Z,17.90
2022-09-24T15:09:30.830Z,17.90
2022-09-24T15:12:36.932Z,17.90
2022-09-24T15:15:19.552Z,17.80
2022-09-24T15:17:50.116Z,17.80
2022-09-24T15:20:17.437Z,17.80
2022-09-24T15:22:48.201Z,17.80
2022-09-24T15:25:15.892Z,17.70
2022-09-24T15:27:44.762Z,17.70
2022-09-24T15:30:19.871Z,17.70
2022-09-24T15:32:50.194Z,17.70
2022-09-24T15:35:17.874Z,17.60
2022-09-24T15:37:45.391Z,17.60
2022-09-24T15:40:26.051Z,17.60
2022-09-24T15:42:53.636Z,17.60
2022-09-24T15:45:23.879Z,17.50
2022-09-24T15:47:54.614Z,17.50
2022-09-24T15:50:24.229Z,17.50
2022-09-24T15:53:00.161Z,17.40
2022-09-24T15:55:28.882Z,17.40
2022-09-24T15:57:55.949Z,17.40
2022-09-24T16:00:26.261Z,17.30
2022-09-24T16:02:56.564Z,17.30
2022-09-24T16:05:26.925Z,17.20
2022-09-24T16:07:54.217Z,17.20
2022-09-24T16:10:25.068Z,17.10
2022-09-24T16:12:52.122Z,17.10
2022-09-24T16:15:19.643Z,17.00
2022-09-24T16:17:49.963Z,17.00
2022-09-24T16:20:17.352Z,17.00
2022-09-24T16:22:44.525Z,17.00
2022-09-24T16:25:11.668Z,16.90
2022-09-24T16:27:38.997Z,16.90
2022-09-24T16:30:10.631Z,16.90
2022-09-24T16:32:37.833Z,16.80
2022-09-24T16:35:05.381Z,16.80
2022-09-24T16:37:32.732Z,16.70
2022-09-24T16:40:04.463Z,16.70
2022-09-24T16:42:31.785Z,16.60
2022-09-24T16:44:58.919Z,16.60
2022-09-24T16:47:25.958Z,16.50
2022-09-24T16:49:56.291Z,16.50
2022-09-24T16:52:32.052Z,16.40
2022-09-24T16:54:59.121Z,16.40
2022-09-24T16:57:26.239Z,16.40
2022-09-24T16:59:53.308Z,16.30
2022-09-24T17:02:20.486Z,16.30
2022-09-24T17:04:53.574Z,16.20
2022-09-24T17:07:23.617Z,16.20
2022-09-24T17:10:09.241Z,16.10
2022-09-24T17:12:36.298Z,16.10
2022-09-24T17:15:03.701Z,16.10
2022-09-24T17:17:32.849Z,16.00
2022-09-24T17:20:09.546Z,16.00
2022-09-24T17:22:37.860Z,16.00
2022-09-24T17:25:06.874Z,15.90
2022-09-24T17:27:35.103Z,15.90
2022-09-24T17:30:04.822Z,15.90
2022-09-24T17:32:32.295Z,15.80
2022-09-24T17:34:59.471Z,15.80
2022-09-24T17:37:29.729Z,15.80
2022-09-24T17:39:57.555Z,15.80
2022-09-24T17:42:25.369Z,15.80
2022-09-24T17:44:52.554Z,15.80
2022-09-24T17:47:19.617Z,15.70
2022-09-24T17:49:46.695Z,15.70
2022-09-24T17:52:20.748Z,15.60
2022-09-24T17:54:48.069Z,15.60
2022-09-24T17:57:15.162Z,15.60
2022-09-24T17:59:42.866Z,15.50
2022-09-24T18:02:11.143Z,15.50
2022-09-24T18:04:41.361Z,15.50
2022-09-24T18:07:08.515Z,15.40
2022-09-24T18:09:35.606Z,15.40
2022-09-24T18:12:05.401Z,15.40
2022-09-24T18:14:32.829Z,15.30
2022-09-24T18:17:01.114Z,15.30
2022-09-24T18:19:28.348Z,15.30
2022-09-24T18:21:59.938Z,15.30
2022-09-24T18:24:27.253Z,15.20
2022-09-24T18:26:54.448Z,15.20
2022-09-24T18:29:22.123Z,15.20
2022-09-24T18:31:51.398Z,15.20
2022-09-24T18:34:18.586Z,15.10
2022-09-24T18:36:46.017Z,15.10
2022-09-24T18:39:17.616Z,15.10
2022-09-24T18:41:47.448Z,15.10
2022-09-24T18:44:14.718Z,15.00
2022-09-24T18:46:45.716Z,15.00
2022-09-24T18:49:17.431Z,15.00
2022-09-24T18:51:45.012Z,14.90
2022-09-24T18:54:14.303Z,14.90
2022-09-24T18:56:42.830Z,14.90
2022-09-24T18:59:15.346Z,14.90
2022-09-24T19:01:47.512Z,14.80
2022-09-24T19:04:15.303Z,14.80
2022-09-24T19:06:48.588Z,14.80
2022-09-24T19:09:17.589Z,14.70
2022-09-24T19:11:45.591Z,14.70
2022-09-24T19:14:14.988Z,14.70
2022-09-24T19:16:42.258Z,14.60
2022-09-24T19:19:11.389Z,14.60
2022-09-24T19:21:42.261Z,14.60
2022-09-24T19:24:09.979Z,14.50
2022-09-24T19:26:37.937Z,14.50
2022-09-24T19:29:05.505Z,14.50
2022-09-24T19:31:36.823Z,14.50
2022-09-24T19:34:07.937Z,14.40
2022-09-24T19:36:45.176Z,14.30
2022-09-24T19:39:15.927Z,14.30
2022-09-24T19:41:44.018Z,14.30
2022-09-24T19:44:12.316Z,14.20
2022-09-24T19:46:40.298Z,14.20
2022-09-24T19:49:10.679Z,14.20
2022-09-24T19:51:43.679Z,14.10
2022-09-24T19:54:13.817Z,14.00
2022-09-24T19:56:42.186Z,14.00
2022-09-24T19:59:10.813Z,14.00
2022-09-24T20:01:42.462Z,13.90
2022-09-24T20:04:14.816Z,13.80
2022-09-24T20:06:41.980Z,13.80
2022-09-24T20:09:09.235Z,13.80
2022-09-24T20:11:39.013Z,13.70
2022-09-24T20:14:08.974Z,13.70
2022-09-24T20:16:36.420Z,13.60
2022-09-24T20:19:04.750Z,13.60
2022-09-24T20:21:36.932Z,13.50
2022-09-24T20:24:06.338Z,13.50
2022-09-24T20:26:52.953Z,13.40
2022-09-24T20:29:22.032Z,13.40
2022-09-24T20:31:55.287Z,13.30
2022-09-24T20:34:31.752Z,13.30
2022-09-24T20:37:02.473Z,13.20
2022-09-24T20:39:33.540Z,13.20
2022-09-24T20:42:05.882Z,13.20
2022-09-24T20:44:33.936Z,13.10
2022-09-24T20:47:04.516Z,13.10
2022-09-24T20:49:33.275Z,13.00
2022-09-24T20:52:03.007Z,13.00
2022-09-24T20:54:30.197Z,13.00
2022-09-24T20:56:57.787Z,13.00
2022-09-24T20:59:28.195Z,12.90
2022-09-24T21:01:55.845Z,12.90
2022-09-24T21:04:24.279Z,12.90
2022-09-24T21:06:51.875Z,12.80
2022-09-24T21:09:19.485Z,12.80
2022-09-24T21:11:50.217Z,12.80
2022-09-24T21:14:21.824Z,12.70
2022-09-24T21:16:48.954Z,12.70
2022-09-24T21:19:16.342Z,12.70
2022-09-24T21:21:43.453Z,12.70
2022-09-24T21:24:15.135Z,12.70
2022-09-24T21:26:45.163Z,12.60
2022-09-24T21:29:18.786Z,12.60
2022-09-24T21:31:47.740Z,12.60
2022-09-24T21:34:20.708Z,12.60
2022-09-24T21:36:48.867Z,12.60
2022-09-24T21:39:26.743Z,12.50
2022-09-24T21:41:55.506Z,12.50
2022-09-24T21:44:22.621Z,12.50
2022-09-24T21:46:53.523Z,12.50
2022-09-24T21:49:24.123Z,12.50
2022-09-24T21:51:53.819Z,12.50
2022-09-24T21:54:21.096Z,12.50
2022-09-24T21:56:53.933Z,12.50
2022-09-24T21:59:39.384Z,12.50
2022-09-24T22:02:07.107Z,12.40
2022-09-24T22:04:34.316Z,12.40
2022-09-24T22:07:02.220Z,12.40
2022-09-24T22:09:32.244Z,12.50
2022-09-24T22:12:00.881Z,12.40
2022-09-24T22:14:28.706Z,12.40
2022-09-24T22:16:56.832Z,12.40
2022-09-24T22:19:24.046Z,12.40
2022-09-24T22:21:52.416Z,12.40
2022-09-24T22:24:23.138Z,12.40
2022-09-24T22:26:54.083Z,12.40
2022-09-24T22:29:21.349Z,12.40
2022-09-24T22:31:48.494Z,12.40
2022-09-24T22:34:34.233Z,12.40
2022-09-24T22:37:06.001Z,12.40
2022-09-24T22:39:35.334Z,12.30
2022-09-24T22:42:02.436Z,12.30
2022-09-24T22:44:29.666Z,12.30
2022-09-24T22:46:57.132Z,12.30
2022-09-24T22:49:24.437Z,12.20
2022-09-24T22:51:52.047Z,12.20
2022-09-24T22:54:19.327Z,12.20
2022-09-24T22:56:46.496Z,12.20
2022-09-24T22:59:13.569Z,12.20
2022-09-24T23:01:44.035Z,12.20
2022-09-24T23:04:15.166Z,12.10
2022-09-24T23:06:43.666Z,12.10
2022-09-24T23:09:11.489Z,12.10
2022-09-24T23:11:39.913Z,12.10
2022-09-24T23:14:16.241Z,12.10
2022-09-24T23:16:43.904Z,12.10
2022-09-24T23:19:19.433Z,12.10
2022-09-24T23:21:47.121Z,12.10
2022-09-24T23:24:18.380Z,12.10
2022-09-24T23:26:46.335Z,12.00
2022-09-24T23:29:17.033Z,12.00
2022-09-24T23:31:44.584Z,12.00
2022-09-24T23:34:13.300Z,12.00
2022-09-24T23:36:41.136Z,12.00
2022-09-24T23:39:08.367Z,12.00
2022-09-24T23:41:36.013Z,12.00
2022-09-24T23:44:03.364Z,11.90
2022-09-24T23:46:34.013Z,11.90
2022-09-24T23:49:01.365Z,11.90
2022-09-24T23:51:31.985Z,11.90
2022-09-24T23:54:06.103Z,11.90
2022-09-24T23:56:39.574Z,11.90
2022-09-24T23:59:13.500Z,11.90
